createdAt,value
2024-02-22T00:00:16.521Z,9.71
2024-02-22T00:03:20.578Z,9.69
2024-02-22T00:06:22.065Z,9.73
2024-02-22T00:09:23.713Z,9.74
2024-02-22T00:12:25.259Z,9.72
2024-02-22T00:15:27.192Z,9.74
2024-02-22T00:18:28.706Z,9.72
2024-02-22T00:21:30.193Z,9.70
2024-02-22T00:24:31.637Z,9.77
2024-02-22T00:27:34.790Z,9.75
2024-02-22T00:30:36.231Z,9.76
2024-02-22T00:33:37.757Z,9.70
2024-02-22T00:36:43.258Z,9.68
2024-02-22T00:39:47.643Z,9.66
2024-02-22T00:42:49.135Z,9.62
2024-02-22T00:45:51.896Z,9.61
2024-02-22T00:48:53.362Z,9.64
2024-02-22T00:51:54.888Z,9.66
2024-02-22T00:54:56.572Z,9.67
2024-02-22T00:57:58.016Z,9.63
2024-02-22T01:00:59.473Z,9.66
2024-02-22T01:04:01.017Z,9.69
2024-02-22T01:07:02.908Z,9.68
2024-02-22T01:10:06.560Z,9.66
2024-02-22T01:13:09.844Z,9.71
2024-02-22T01:16:11.292Z,9.68
2024-02-22T01:19:12.895Z,9.74
2024-02-22T01:22:14.646Z,9.67
2024-02-22T01:25:16.054Z,9.68
2024-02-22T01:28:17.478Z,9.64
2024-02-22T01:31:18.970Z,9.66
2024-02-22T01:34:21.929Z,9.64
2024-02-22T01:37:23.474Z,9.68
2024-02-22T01:40:24.931Z,9.76
2024-02-22T01:43:26.431Z,9.67
2024-02-22T01:46:28.076Z,9.59
2024-02-22T01:49:29.697Z,9.56
2024-02-22T01:52:31.281Z,9.56
2024-02-22T01:55:33.297Z,9.53
2024-02-22T01:58:37.534Z,9.51
2024-02-22T02:01:51.978Z,9.52
2024-02-22T02:04:53.626Z,9.50
2024-02-22T02:07:55.089Z,9.49
2024-02-22T02:10:56.652Z,9.46
2024-02-22T02:13:58.159Z,9.44
2024-02-22T02:16:59.712Z,9.45
2024-02-22T02:20:08.431Z,9.46
2024-02-22T02:23:45.014Z,9.46
2024-02-22T02:26:47.022Z,9.48
2024-02-22T02:29:48.531Z,9.48
2024-02-22T02:32:50.236Z,9.55
2024-02-22T02:35:53.254Z,9.49
2024-02-22T02:38:54.674Z,9.65
2024-02-22T02:41:56.228Z,9.60
2024-02-22T02:44:57.699Z,9.56
2024-02-22T02:47:59.238Z,9.61
2024-02-22T02:51:00.807Z,9.60
2024-02-22T02:54:02.283Z,9.63
2024-02-22T02:57:03.956Z,9.65
2024-02-22T03:00:10.621Z,9.64
2024-02-22T03:03:12.061Z,9.70
2024-02-22T03:06:13.611Z,9.73
2024-02-22T03:09:15.865Z,9.69
2024-02-22T03:12:17.341Z,9.74
2024-02-22T03:15:18.833Z,9.70
2024-02-22T03:18:20.361Z,9.78
2024-02-22T03:21:22.372Z,9.74
2024-02-22T03:24:23.771Z,9.83
2024-02-22T03:27:25.252Z,9.80
2024-02-22T03:30:27.384Z,9.78
2024-02-22T03:33:29.352Z,9.79
2024-02-22T03:36:31.232Z,9.81
2024-02-22T03:39:32.699Z,9.75
2024-02-22T03:42:34.915Z,9.75
2024-02-22T03:45:36.394Z,9.77
2024-02-22T03:48:37.946Z,9.78
2024-02-22T03:51:39.417Z,9.79
2024-02-22T03:54:41.340Z,9.80
2024-02-22T03:57:43.278Z,9.82
2024-02-22T04:00:44.860Z,9.95
2024-02-22T04:03:46.362Z,9.96
2024-02-22T04:06:48.291Z,9.87
2024-02-22T04:09:50.216Z,9.87
2024-02-22T04:12:51.659Z,9.84
2024-02-22T04:15:53.131Z,9.83
2024-02-22T04:18:54.738Z,9.83
2024-02-22T04:21:56.346Z,9.93
2024-02-22T04:24:57.783Z,9.91
2024-02-22T04:27:59.240Z,9.89
2024-02-22T04:31:05.074Z,9.85
2024-02-22T04:34:06.516Z,9.80
2024-02-22T04:37:07.987Z,9.82
2024-02-22T04:40:09.792Z,9.84
2024-02-22T04:43:11.262Z,9.87
2024-02-22T04:46:12.682Z,9.93
2024-02-22T04:49:14.269Z,9.91
2024-02-22T04:52:15.784Z,9.88
2024-02-22T04:55:18.602Z,9.90
2024-02-22T04:58:20.012Z,9.88
2024-02-22T05:01:21.780Z,9.91
2024-02-22T05:04:23.256Z,9.98
2024-02-22T05:07:24.695Z,9.95
2024-02-22T05:10:26.149Z,9.93
2024-02-22T05:13:27.606Z,9.89
2024-02-22T05:16:29.035Z,9.93
2024-02-22T05:19:30.544Z,9.94
2024-02-22T05:22:32.067Z,9.95
2024-02-22T05:25:35.010Z,10.00
2024-02-22T05:28:36.595Z,9.97
2024-02-22T05:31:38.081Z,9.89
2024-02-22T05:34:39.613Z,9.94
2024-02-22T05:37:41.234Z,9.92
2024-02-22T05:40:43.045Z,9.88
2024-02-22T05:43:44.781Z,10.03
2024-02-22T05:46:46.322Z,10.02
2024-02-22T05:49:47.845Z,10.01
2024-02-22T05:52:49.372Z,10.07
2024-02-22T05:55:50.978Z,10.01
2024-02-22T05:58:52.536Z,9.96
2024-02-22T06:01:54.217Z,9.93
2024-02-22T06:05:01.162Z,9.96
2024-02-22T06:08:02.765Z,9.96
2024-02-22T06:11:04.621Z,9.99
2024-02-22T06:14:06.227Z,10.04
2024-02-22T06:17:07.944Z,10.02
2024-02-22T06:20:10.433Z,10.06
2024-02-22T06:23:13.088Z,10.08
2024-02-22T06:26:15.263Z,10.09
2024-02-22T06:29:16.759Z,10.09
2024-02-22T06:32:18.362Z,10.11
2024-02-22T06:35:22.330Z,10.16
2024-02-22T06:38:24.982Z,10.20
2024-02-22T06:41:26.529Z,10.25
2024-02-22T06:44:28.070Z,10.20
2024-02-22T06:47:29.776Z,10.17
2024-02-22T06:50:31.707Z,10.20
2024-02-22T06:53:33.396Z,10.18
2024-02-22T06:56:35.105Z,10.24
2024-02-22T06:59:36.554Z,10.20
2024-02-22T07:02:38.554Z,10.35
2024-02-22T07:05:40.021Z,10.32
2024-02-22T07:08:41.633Z,10.28
2024-02-22T07:11:43.145Z,10.30
2024-02-22T07:14:44.697Z,10.30
2024-02-22T07:17:46.251Z,10.33
2024-02-22T07:20:47.858Z,10.30
2024-02-22T07:23:49.298Z,10.33
2024-02-22T07:26:50.770Z,10.32
2024-02-22T07:29:52.580Z,10.36
2024-02-22T07:32:54.227Z,10.35
2024-02-22T07:35:55.735Z,10.36
2024-02-22T07:38:58.439Z,10.35
2024-02-22T07:41:59.872Z,10.43
2024-02-22T07:45:02.070Z,10.48
2024-02-22T07:48:09.510Z,10.54
2024-02-22T07:51:11.739Z,10.64
2024-02-22T07:54:13.165Z,10.63
2024-02-22T07:57:14.716Z,10.66
2024-02-22T08:00:18.477Z,10.71
2024-02-22T08:03:19.921Z,10.69
2024-02-22T08:06:21.461Z,10.64
2024-02-22T08:09:23.313Z,10.76
2024-02-22T08:12:24.801Z,10.74
2024-02-22T08:15:26.377Z,10.78
2024-02-22T08:18:27.827Z,10.85
2024-02-22T08:21:29.342Z,10.83
2024-02-22T08:24:30.785Z,10.82
2024-02-22T08:27:32.268Z,10.81
2024-02-22T08:30:33.778Z,10.89
2024-02-22T08:33:35.305Z,10.93
2024-02-22T08:36:36.775Z,10.93
2024-02-22T08:39:38.259Z,11.00
2024-02-22T08:42:39.843Z,10.94
2024-02-22T08:45:41.529Z,11.01
2024-02-22T08:48:43.174Z,10.99
2024-02-22T08:51:44.650Z,10.94
2024-02-22T08:54:46.186Z,11.00
2024-02-22T08:57:52.521Z,11.03
2024-02-22T09:00:55.641Z,11.06
2024-02-22T09:03:57.135Z,11.05
2024-02-22T09:06:59.220Z,11.10
2024-02-22T09:10:01.869Z,11.11
2024-02-22T09:13:03.460Z,11.14
2024-02-22T09:16:05.258Z,11.13
2024-02-22T09:19:06.721Z,11.12
2024-02-22T09:22:08.289Z,11.21
2024-02-22T09:25:12.085Z,11.28
2024-02-22T09:28:14.162Z,11.25
2024-02-22T09:31:17.842Z,11.31
2024-02-22T09:34:19.301Z,11.33
2024-02-22T09:37:21.974Z,11.36
2024-02-22T09:40:24.809Z,11.43
2024-02-22T09:43:26.264Z,11.42
2024-02-22T09:46:27.924Z,11.42
2024-02-22T09:49:29.516Z,11.40
2024-02-22T09:52:30.985Z,11.43
2024-02-22T09:55:32.523Z,11.46
2024-02-22T09:58:34.033Z,11.46
2024-02-22T10:01:35.623Z,11.58
2024-02-22T10:04:37.215Z,11.59
2024-02-22T10:07:40.947Z,11.71
2024-02-22T10:10:42.787Z,11.77
2024-02-22T10:13:44.738Z,11.76
2024-02-22T10:16:47.070Z,11.69
2024-02-22T10:20:15.142Z,11.75
2024-02-22T10:23:18.252Z,11.79
2024-02-22T10:26:19.801Z,11.80
2024-02-22T10:29:22.108Z,11.82
2024-02-22T10:32:23.740Z,11.80
2024-02-22T10:35:25.473Z,11.88
2024-02-22T10:38:30.058Z,11.92
2024-02-22T10:41:31.635Z,11.97
2024-02-22T10:44:33.222Z,11.94
2024-02-22T10:47:36.215Z,12.07
2024-02-22T10:50:39.038Z,12.13
2024-02-22T10:53:43.326Z,12.22
2024-02-22T10:56:49.505Z,12.21
2024-02-22T10:59:55.436Z,12.24
2024-02-22T11:02:57.235Z,12.28
2024-02-22T11:06:01.034Z,12.25
2024-02-22T11:09:02.846Z,12.33
2024-02-22T11:12:06.496Z,12.25
2024-02-22T11:15:08.847Z,12.35
2024-02-22T11:18:10.406Z,12.24
2024-02-22T11:21:13.422Z,12.34
2024-02-22T11:24:15.601Z,12.27
2024-02-22T11:27:18.703Z,12.33
2024-02-22T11:30:20.733Z,12.37
2024-02-22T11:33:23.650Z,12.33
2024-02-22T11:36:26.279Z,12.38
2024-02-22T11:39:28.358Z,12.42
2024-02-22T11:42:30.769Z,12.41
2024-02-22T11:45:33.076Z,12.46
2024-02-22T11:48:35.074Z,12.53
2024-02-22T11:51:37.847Z,12.58
2024-02-22T11:54:41.197Z,12.60
2024-02-22T11:57:43.248Z,12.65
2024-02-22T12:00:45.618Z,12.76
2024-02-22T12:03:48.224Z,12.83
2024-02-22T12:06:50.316Z,12.79
2024-02-22T12:09:51.859Z,12.69
2024-02-22T12:12:53.665Z,12.69
2024-02-22T12:16:07.900Z,12.79
2024-02-22T12:19:09.827Z,12.70
2024-02-22T12:22:11.325Z,12.71
2024-02-22T12:25:13.010Z,12.75
2024-02-22T12:28:14.473Z,12.69
2024-02-22T12:31:18.085Z,12.74
2024-02-22T12:34:19.892Z,12.77
2024-02-22T12:37:21.635Z,12.73
2024-02-22T12:40:23.097Z,12.61
2024-02-22T12:43:24.595Z,12.54
2024-02-22T12:46:28.652Z,12.49
2024-02-22T12:49:32.193Z,12.46
2024-02-22T12:52:33.753Z,12.54
2024-02-22T12:55:35.294Z,12.40
2024-02-22T12:58:36.868Z,12.52
2024-02-22T13:01:38.705Z,12.54
2024-02-22T13:04:40.386Z,12.61
2024-02-22T13:07:42.090Z,12.51
2024-02-22T13:10:43.827Z,12.45
2024-02-22T13:13:45.527Z,12.58
2024-02-22T13:16:47.111Z,12.42
2024-02-22T13:19:48.599Z,12.39
2024-02-22T13:22:50.056Z,12.43
2024-02-22T13:25:52.208Z,12.37
2024-02-22T13:28:53.877Z,12.40
2024-02-22T13:31:58.703Z,12.47
2024-02-22T13:35:00.540Z,12.42
2024-02-22T13:38:02.112Z,12.32
2024-02-22T13:41:04.524Z,12.39
2024-02-22T13:44:13.750Z,12.40
2024-02-22T13:47:19.229Z,12.30
2024-02-22T13:50:20.819Z,12.32
2024-02-22T13:53:22.962Z,12.30
2024-02-22T13:56:24.681Z,12.26
2024-02-22T13:59:26.435Z,12.19
2024-02-22T14:02:27.988Z,12.26
2024-02-22T14:05:31.520Z,12.21
2024-02-22T14:08:33.572Z,12.26
2024-02-22T14:11:35.044Z,12.20
2024-02-22T14:14:36.554Z,12.19
2024-02-22T14:20:43.392Z,12.23
2024-02-22T14:23:46.934Z,12.23
2024-02-22T14:26:50.692Z,12.22
2024-02-22T14:29:53.390Z,12.30
2024-02-22T14:32:54.889Z,12.27
2024-02-22T14:35:56.948Z,12.23
2024-02-22T14:38:58.963Z,12.24
2024-02-22T14:42:00.756Z,12.31
2024-02-22T14:45:02.559Z,12.27
2024-02-22T14:48:05.288Z,12.28
2024-02-22T14:51:08.504Z,12.28
2024-02-22T14:54:10.344Z,12.28
2024-02-22T14:57:12.002Z,12.32
2024-02-22T15:00:16.029Z,12.28
2024-02-22T15:03:17.734Z,12.35
2024-02-22T15:06:19.513Z,12.33
2024-02-22T15:09:21.134Z,12.25
2024-02-22T15:12:22.778Z,12.24
2024-02-22T15:15:24.201Z,12.31
2024-02-22T15:18:25.784Z,12.29
2024-02-22T15:21:27.473Z,12.24
2024-02-22T15:24:28.957Z,12.13
2024-02-22T15:27:31.181Z,12.18
2024-02-22T15:30:32.624Z,12.13
2024-02-22T15:33:34.278Z,12.12
2024-02-22T15:36:36.008Z,12.00
2024-02-22T15:39:42.436Z,11.89
2024-02-22T15:42:45.954Z,11.93
2024-02-22T15:45:47.467Z,11.82
2024-02-22T15:48:49.692Z,11.86
2024-02-22T15:51:54.436Z,11.87
2024-02-22T15:54:55.994Z,11.87
2024-02-22T15:57:58.577Z,11.82
2024-02-22T16:01:02.027Z,11.77
2024-02-22T16:04:04.803Z,11.78
2024-02-22T16:07:06.622Z,11.74
2024-02-22T16:10:09.739Z,11.74
2024-02-22T16:13:14.233Z,11.77
2024-02-22T16:16:17.971Z,11.79
2024-02-22T16:19:19.586Z,11.76
2024-02-22T16:22:21.220Z,11.76
2024-02-22T16:25:22.764Z,11.89
2024-02-22T16:28:29.552Z,11.83
2024-02-22T16:31:31.126Z,11.90
2024-02-22T16:34:32.956Z,11.86
2024-02-22T16:37:34.898Z,11.86
2024-02-22T16:40:37.423Z,11.81
2024-02-22T16:43:38.958Z,11.76
2024-02-22T16:46:41.830Z,11.81
2024-02-22T16:49:43.644Z,11.84
2024-02-22T16:52:45.418Z,11.78
2024-02-22T16:55:47.061Z,11.76
2024-02-22T16:58:48.623Z,11.75
2024-02-22T17:01:50.212Z,11.84
2024-02-22T17:04:51.700Z,11.82
2024-02-22T17:07:53.176Z,11.71
2024-02-22T17:10:54.839Z,11.75
2024-02-22T17:13:56.508Z,11.76
2024-02-22T17:16:59.203Z,11.77
2024-02-22T17:20:00.980Z,11.70
2024-02-22T17:23:02.711Z,11.66
2024-02-22T17:26:04.709Z,11.66
2024-02-22T17:29:06.567Z,11.69
2024-02-22T17:32:08.337Z,11.69
2024-02-22T17:35:10.111Z,11.70
2024-02-22T17:38:11.882Z,11.70
2024-02-22T17:41:13.444Z,11.66
2024-02-22T17:44:15.575Z,11.71
2024-02-22T17:47:19.000Z,11.72
2024-02-22T17:50:20.818Z,11.72
2024-02-22T17:53:22.482Z,11.75
2024-02-22T17:56:27.032Z,11.77
2024-02-22T17:59:28.738Z,11.76
2024-02-22T18:02:31.283Z,11.75
2024-02-22T18:05:33.609Z,11.78
2024-02-22T18:08:37.844Z,11.83
2024-02-22T18:11:39.977Z,11.86
2024-02-22T18:14:42.406Z,11.91
2024-02-22T18:17:44.017Z,11.86
2024-02-22T18:20:45.791Z,11.85
2024-02-22T18:23:47.303Z,11.91
2024-02-22T18:26:48.837Z,11.89
2024-02-22T18:29:50.397Z,11.91
2024-02-22T18:32:54.094Z,11.92
2024-02-22T18:35:55.680Z,11.95
2024-02-22T18:38:57.200Z,12.02
2024-02-22T18:41:58.997Z,12.05
2024-02-22T18:45:02.657Z,12.07
2024-02-22T18:48:07.174Z,12.21
2024-02-22T18:51:08.814Z,12.28
2024-02-22T18:54:10.252Z,12.36
2024-02-22T18:57:11.668Z,12.44
2024-02-22T19:00:13.407Z,12.62
2024-02-22T19:03:17.090Z,12.68
2024-02-22T19:06:18.740Z,12.70
2024-02-22T19:09:20.274Z,12.83
2024-02-22T19:12:21.802Z,12.82
2024-02-22T19:15:23.375Z,12.88
2024-02-22T19:18:24.938Z,13.09
2024-02-22T19:21:26.701Z,13.25
2024-02-22T19:24:29.958Z,13.12
2024-02-22T19:27:33.347Z,12.96
2024-02-22T19:30:34.949Z,12.95
2024-02-22T19:33:36.409Z,12.97
2024-02-22T19:36:45.177Z,12.99
2024-02-22T19:39:54.854Z,13.11
2024-02-22T19:42:56.368Z,12.99
2024-02-22T19:45:57.800Z,12.90
2024-02-22T19:48:59.464Z,12.83
2024-02-22T19:52:00.926Z,12.76
2024-02-22T19:55:04.153Z,12.72
2024-02-22T19:58:05.750Z,12.63
2024-02-22T20:01:07.207Z,12.59
2024-02-22T20:04:08.804Z,12.57
2024-02-22T20:07:10.285Z,12.51
2024-02-22T20:10:11.785Z,12.55
2024-02-22T20:13:15.714Z,12.57
2024-02-22T20:16:17.189Z,12.50
2024-02-22T20:19:18.894Z,12.39
2024-02-22T20:22:20.588Z,12.38
2024-02-22T20:25:22.079Z,12.44
2024-02-22T20:28:25.856Z,12.47
2024-02-22T20:31:28.042Z,12.37
2024-02-22T20:34:29.794Z,12.36
2024-02-22T20:37:31.546Z,12.35
2024-02-22T20:40:33.967Z,12.36
2024-02-22T20:43:36.040Z,12.36
2024-02-22T20:46:37.527Z,12.29
2024-02-22T20:49:39.493Z,12.23
2024-02-22T20:52:41.572Z,12.21
2024-02-22T20:55:43.152Z,12.19
2024-02-22T20:58:45.757Z,12.23
2024-02-22T21:01:49.569Z,12.17
2024-02-22T21:04:51.084Z,12.14
2024-02-22T21:07:52.757Z,12.19
2024-02-22T21:10:58.608Z,12.08
2024-02-22T21:14:00.396Z,12.02
2024-02-22T21:17:01.952Z,12.12
2024-02-22T21:20:06.120Z,12.14
2024-02-22T21:23:07.796Z,12.04
2024-02-22T21:26:09.287Z,11.90
2024-02-22T21:29:10.974Z,11.83
2024-02-22T21:32:12.494Z,11.72
2024-02-22T21:35:14.129Z,11.67
2024-02-22T21:38:15.713Z,11.64
2024-02-22T21:41:17.154Z,11.54
2024-02-22T21:44:18.673Z,11.51
2024-02-22T21:47:20.498Z,11.56
2024-02-22T21:50:22.124Z,11.51
2024-02-22T21:53:23.785Z,11.39
2024-02-22T21:56:25.430Z,11.35
2024-02-22T21:59:26.973Z,11.35
2024-02-22T22:02:28.567Z,11.23
2024-02-22T22:05:32.190Z,11.18
2024-02-22T22:08:35.427Z,11.09
2024-02-22T22:11:38.095Z,11.12
2024-02-22T22:14:39.697Z,10.99
2024-02-22T22:17:41.322Z,10.98
2024-02-22T22:20:45.444Z,10.93
2024-02-22T22:23:47.108Z,10.85
2024-02-22T22:26:48.528Z,10.80
2024-02-22T22:29:50.054Z,10.64
2024-02-22T22:32:51.598Z,10.72
2024-02-22T22:35:53.114Z,10.53
2024-02-22T22:38:54.554Z,10.40
2024-02-22T22:41:57.951Z,10.35
2024-02-22T22:44:59.467Z,10.41
2024-02-22T22:48:00.962Z,10.30
2024-02-22T22:51:02.534Z,10.18
2024-02-22T22:54:04.360Z,10.12
2024-02-22T22:57:05.819Z,10.15
2024-02-22T23:00:14.870Z,10.21
2024-02-22T23:03:17.052Z,10.21
2024-02-22T23:06:18.909Z,10.13
2024-02-22T23:09:22.412Z,10.16
2024-02-22T23:12:24.261Z,10.17
2024-02-22T23:15:26.103Z,10.06
2024-02-22T23:18:27.686Z,9.91
2024-02-22T23:21:36.479Z,9.99
2024-02-22T23:24:38.048Z,9.89
2024-02-22T23:27:39.531Z,9.79
2024-02-22T23:30:41.057Z,9.80
2024-02-22T23:33:42.526Z,9.71
2024-02-22T23:36:44.263Z,9.67
2024-02-22T23:39:46.084Z,9.67
2024-02-22T23:42:47.514Z,9.67
2024-02-22T23:45:49.018Z,9.63
2024-02-22T23:48:50.595Z,9.60
2024-02-22T23:51:52.148Z,9.66
2024-02-22T23:54:53.600Z,9.58
2024-02-22T23:57:55.049Z,9.56
